Time;durP1;ratioP1;P1;durP2;ratioP2;P2;SDS_P1;SDS_P2;PMS_P1;PMS_P2;Temp;Humidity;BMP_temperature;BMP_pressure;BME280_temperature;BME280_humidity;BME280_pressure;Samples;Min_cycle;Max_cycle;Signal;HPM_P1;HPM_P2
2022/01/16 00:00:02;;;;;;;19.58;9.80;;;-3.80;99.90;;;;;;2090515;28;20226;-68
2022/01/16 00:01:21;;;;;;;19.17;8.65;;;-3.80;99.90;;;;;;2090596;28;20208;-68
2022/01/16 00:04:07;;;;;;;19.30;10.10;;;-3.90;99.90;;;;;;2079439;28;20192;-68
2022/01/16 00:05:08;;;;;;;21.73;10.32;;;-4.00;99.90;;;;;;2075088;28;20182;-67
2022/01/16 00:06:08;;;;;;;23.43;12.00;;;-4.10;99.90;;;;;;2089971;28;20196;-68
2022/01/16 00:07:09;;;;;;;25.73;10.67;;;-4.20;99.90;;;;;;2090497;28;20292;-70
2022/01/16 00:08:11;;;;;;;21.60;10.40;;;-4.20;99.90;;;;;;2090330;28;20176;-68
2022/01/16 00:09:13;;;;;;;22.85;10.43;;;-4.20;99.90;;;;;;2090538;28;20164;-68
2022/01/16 00:10:14;;;;;;;19.05;10.23;;;-4.20;99.90;;;;;;2089791;28;20162;-68
2022/01/16 00:11:15;;;;;;;17.95;9.70;;;-4.20;99.90;;;;;;2089918;28;20239;-70
2022/01/16 00:12:18;;;;;;;22.63;10.97;;;-4.20;99.90;;;;;;2090457;28;20286;-70
2022/01/16 00:13:20;;;;;;;23.05;10.00;;;-4.20;99.90;;;;;;2089864;28;20196;-68
2022/01/16 00:14:20;;;;;;;23.13;10.68;;;-4.20;99.90;;;;;;2081946;28;20645;-69
2022/01/16 00:15:22;;;;;;;17.47;9.43;;;-4.20;99.90;;;;;;2089866;28;20165;-68
2022/01/16 00:16:23;;;;;;;16.25;9.65;;;-4.20;99.90;;;;;;2089886;28;20247;-68
2022/01/16 00:17:27;;;;;;;22.67;9.68;;;-4.20;99.90;;;;;;2087640;28;20192;-68
2022/01/16 00:18:40;;;;;;;18.80;8.90;;;-4.30;99.90;;;;;;2088107;28;20310;-68
2022/01/16 00:19:40;;;;;;;19.88;9.48;;;-4.30;99.90;;;;;;2089881;28;20188;-68
2022/01/16 00:20:41;;;;;;;18.97;9.23;;;-4.30;99.90;;;;;;2090265;28;20185;-70
2022/01/16 00:21:42;;;;;;;18.17;8.90;;;-4.20;99.90;;;;;;2089847;28;20191;-68
2022/01/16 00:22:45;;;;;;;17.33;9.63;;;-4.20;99.90;;;;;;2081501;28;20243;-68
2022/01/16 00:23:46;;;;;;;14.32;8.63;;;-4.20;99.90;;;;;;2089780;28;20184;-70
2022/01/16 00:24:47;;;;;;;14.70;9.18;;;-4.20;99.90;;;;;;2090349;28;20191;-68
2022/01/16 00:25:50;;;;;;;19.57;9.97;;;-4.20;99.90;;;;;;2090344;28;20199;-68
2022/01/16 00:26:50;;;;;;;18.02;8.10;;;-4.20;99.90;;;;;;2089724;28;20658;-70
2022/01/16 00:27:51;;;;;;;17.03;7.80;;;-4.20;99.90;;;;;;2089392;28;20207;-70
2022/01/16 00:28:52;;;;;;;14.98;7.50;;;-4.10;99.90;;;;;;2089618;28;20175;-70
2022/01/16 00:29:53;;;;;;;18.38;8.65;;;-4.20;99.90;;;;;;2089743;28;20275;-69
2022/01/16 00:30:54;;;;;;;13.93;7.23;;;-4.10;99.90;;;;;;2089716;28;20195;-69
2022/01/16 00:31:54;;;;;;;15.83;7.67;;;-4.10;99.90;;;;;;2089760;28;20173;-70
2022/01/16 00:33:00;;;;;;;14.73;8.00;;;-4.10;99.90;;;;;;2089713;28;20179;-69
2022/01/16 00:34:01;;;;;;;12.35;6.35;;;-4.10;99.90;;;;;;2089689;28;20172;-70
2022/01/16 00:35:03;;;;;;;9.47;5.03;;;-4.10;99.90;;;;;;2089629;28;20856;-70
2022/01/16 00:36:03;;;;;;;11.02;6.05;;;-4.00;99.90;;;;;;2081539;28;20195;-70
2022/01/16 00:37:04;;;;;;;11.10;6.50;;;-4.00;99.90;;;;;;2089664;28;20570;-69
2022/01/16 00:38:05;;;;;;;10.40;5.60;;;-3.90;99.90;;;;;;2089372;28;20196;-69
2022/01/16 00:39:08;;;;;;;7.88;5.35;;;-3.90;99.90;;;;;;2081586;28;20184;-70
2022/01/16 00:40:10;;;;;;;8.25;5.70;;;-3.90;99.90;;;;;;2081601;28;20188;-70
2022/01/16 00:41:13;;;;;;;10.63;5.70;;;-3.90;99.90;;;;;;2081583;28;20188;-69
2022/01/16 00:42:14;;;;;;;11.10;6.70;;;-3.90;99.90;;;;;;2089693;28;20180;-68
2022/01/16 00:43:14;;;;;;;13.93;8.07;;;-3.90;99.90;;;;;;2090194;28;20180;-70
2022/01/16 00:44:15;;;;;;;16.33;9.30;;;-3.90;99.90;;;;;;2090257;28;20168;-68
2022/01/16 00:45:16;;;;;;;10.43;6.63;;;-3.90;99.90;;;;;;2090112;28;20187;-69
2022/01/16 00:46:17;;;;;;;15.47;7.10;;;-4.00;99.90;;;;;;2090275;28;20168;-68
2022/01/16 00:47:18;;;;;;;11.95;6.78;;;-4.00;99.90;;;;;;2089234;28;20212;-68
2022/01/16 00:48:19;;;;;;;9.00;5.20;;;-4.00;99.90;;;;;;2089515;28;20157;-68
2022/01/16 00:49:19;;;;;;;12.20;7.33;;;-4.00;99.90;;;;;;2090157;28;20683;-70
2022/01/16 00:50:20;;;;;;;8.67;5.57;;;-4.00;99.90;;;;;;2090158;28;20164;-70
2022/01/16 00:51:21;;;;;;;9.73;5.60;;;-4.00;99.90;;;;;;2089600;28;20219;-68
2022/01/16 00:52:22;;;;;;;12.43;6.70;;;-3.90;99.90;;;;;;2081349;28;20180;-68
2022/01/16 00:53:23;;;;;;;26.07;6.60;;;-3.90;99.90;;;;;;2081264;28;20162;-68
2022/01/16 00:54:24;;;;;;;9.33;6.50;;;-4.00;99.90;;;;;;2073114;28;20240;-68
2022/01/16 00:55:25;;;;;;;11.60;6.55;;;-3.90;99.90;;;;;;2081378;28;20169;-68
2022/01/16 00:56:26;;;;;;;11.27;5.50;;;-3.90;99.90;;;;;;2090066;28;20204;-68
2022/01/16 00:57:27;;;;;;;15.27;5.63;;;-3.90;99.90;;;;;;2089705;28;20456;-69
2022/01/16 00:58:27;;;;;;;10.93;5.70;;;-3.90;99.90;;;;;;2089524;28;20184;-69
2022/01/16 00:59:28;;;;;;;9.70;6.03;;;-3.90;99.90;;;;;;2089542;28;20626;-69
2022/01/16 01:00:32;;;;;;;13.00;5.53;;;-4.00;99.90;;;;;;2089323;28;20200;-70
2022/01/16 01:01:32;;;;;;;9.70;5.97;;;-4.00;99.90;;;;;;2089211;28;20630;-69
2022/01/16 01:02:33;;;;;;;8.77;5.43;;;-4.00;99.90;;;;;;2089956;28;20189;-70
2022/01/16 01:03:34;;;;;;;10.43;6.33;;;-3.90;99.90;;;;;;2090013;28;20187;-70
2022/01/16 01:04:34;;;;;;;10.80;5.40;;;-4.00;99.90;;;;;;2089366;28;20191;-70
2022/01/16 01:05:35;;;;;;;14.67;5.90;;;-4.00;99.90;;;;;;2089102;28;20250;-70
2022/01/16 01:06:36;;;;;;;11.73;6.78;;;-4.10;99.90;;;;;;2080991;28;20736;-69
2022/01/16 01:07:40;;;;;;;9.90;6.00;;;-4.10;99.90;;;;;;2080964;28;20189;-69
2022/01/16 01:08:41;;;;;;;12.02;6.47;;;-4.10;99.90;;;;;;2088956;28;20227;-70
2022/01/16 01:09:42;;;;;;;12.93;5.93;;;-4.20;99.90;;;;;;2081822;28;20708;-70
2022/01/16 01:10:46;;;;;;;15.07;6.03;;;-4.10;99.90;;;;;;2081706;28;20554;-68
2022/01/16 01:11:49;;;;;;;9.85;5.90;;;-4.10;99.90;;;;;;2081738;28;20563;-68
2022/01/16 01:12:55;;;;;;;9.65;5.65;;;-4.20;99.90;;;;;;2081724;28;20189;-67
2022/01/16 01:15:10;;;;;;;13.07;5.80;;;-4.20;99.90;;;;;;2082553;28;20192;-70
2022/01/16 01:16:15;;;;;;;11.23;6.05;;;-4.20;99.90;;;;;;2087775;28;20168;-68
2022/01/16 01:17:23;;;;;;;9.02;5.50;;;-4.20;99.90;;;;;;2081584;28;20548;-70
2022/01/16 01:18:24;;;;;;;14.35;6.40;;;-4.20;99.90;;;;;;2081663;28;20168;-68
2022/01/16 01:19:32;;;;;;;10.02;5.53;;;-4.20;99.90;;;;;;2081122;28;20181;-68
2022/01/16 01:20:33;;;;;;;9.85;5.68;;;-4.20;99.90;;;;;;2074080;28;20174;-67
2022/01/16 01:21:34;;;;;;;10.30;5.22;;;-4.30;99.90;;;;;;2080506;28;20684;-67
2022/01/16 01:22:35;;;;;;;7.77;4.93;;;-4.30;99.90;;;;;;2081078;28;20173;-67
2022/01/16 01:23:35;;;;;;;10.63;5.87;;;-4.30;99.90;;;;;;2081812;28;20180;-67
2022/01/16 01:24:36;;;;;;;13.13;5.50;;;-4.30;99.90;;;;;;2081189;28;20239;-67
2022/01/16 01:25:38;;;;;;;11.00;5.67;;;-4.40;99.90;;;;;;2081152;28;20207;-67
2022/01/16 01:26:49;;;;;;;9.73;5.22;;;-4.40;99.90;;;;;;2081066;28;20169;-67
2022/01/16 01:27:50;;;;;;;9.00;5.25;;;-4.40;99.90;;;;;;2074129;28;20198;-67
2022/01/16 01:28:50;;;;;;;12.80;6.00;;;-4.30;99.90;;;;;;2079637;28;20174;-67
2022/01/16 01:29:59;;;;;;;8.83;5.10;;;-4.30;99.90;;;;;;2081157;28;20173;-67
2022/01/16 01:31:00;;;;;;;7.15;4.85;;;-4.30;99.90;;;;;;2081037;28;20185;-68
2022/01/16 01:32:01;;;;;;;9.03;5.33;;;-4.30;99.90;;;;;;2081792;28;20177;-67
2022/01/16 01:33:02;;;;;;;11.18;5.50;;;-4.30;99.90;;;;;;2072802;28;20220;-68
2022/01/16 01:34:03;;;;;;;9.93;4.83;;;-4.30;99.90;;;;;;2073065;28;20240;-67
2022/01/16 01:35:07;;;;;;;8.73;4.70;;;-4.40;99.90;;;;;;2081120;28;20227;-68
2022/01/16 01:36:08;;;;;;;9.43;5.22;;;-4.50;99.90;;;;;;2073587;28;20174;-68
2022/01/16 01:37:09;;;;;;;8.20;5.13;;;-4.50;99.90;;;;;;2072920;28;20213;-68
2022/01/16 01:38:11;;;;;;;13.63;5.53;;;-4.50;99.90;;;;;;2080910;28;20260;-68
2022/01/16 01:39:11;;;;;;;13.18;7.15;;;-4.50;99.90;;;;;;2080937;28;20185;-67
2022/01/16 01:40:17;;;;;;;11.60;6.27;;;-4.50;99.90;;;;;;2073006;28;20179;-67
2022/01/16 01:41:19;;;;;;;7.97;4.93;;;-4.50;99.90;;;;;;2081122;28;20177;-69
2022/01/16 01:42:20;;;;;;;21.00;10.68;;;-4.50;99.90;;;;;;2081636;28;20559;-69
2022/01/16 01:51:10;;;;;;;13.80;6.82;;;-4.80;99.90;;;;;;2077939;28;20165;-69
2022/01/16 01:52:11;;;;;;;15.57;6.57;;;-4.70;99.90;;;;;;2081184;28;20177;-69
2022/01/16 01:53:14;;;;;;;11.43;6.67;;;-4.70;99.90;;;;;;2081622;28;20653;-69
2022/01/16 01:54:15;;;;;;;14.98;7.47;;;-4.70;99.90;;;;;;2080918;28;20173;-70
2022/01/16 01:55:17;;;;;;;13.40;6.77;;;-4.60;99.90;;;;;;2072653;28;20193;-69
2022/01/16 01:56:21;;;;;;;14.30;6.78;;;-4.60;99.90;;;;;;2072824;28;20188;-69
2022/01/16 01:57:21;;;;;;;12.63;6.82;;;-4.70;99.90;;;;;;2081025;28;20255;-70
2022/01/16 01:58:22;;;;;;;13.20;7.83;;;-4.70;99.90;;;;;;2080873;28;20182;-70
2022/01/16 01:59:23;;;;;;;14.27;6.90;;;-4.60;99.90;;;;;;2080948;28;20757;-69
2022/01/16 02:00:24;;;;;;;16.93;7.27;;;-4.60;99.90;;;;;;2081518;28;20200;-69
2022/01/16 02:01:27;;;;;;;19.17;8.48;;;-4.60;99.90;;;;;;2081531;28;20181;-69
2022/01/16 02:02:33;;;;;;;11.85;6.80;;;-4.60;99.90;;;;;;2089047;28;20196;-69
2022/01/16 02:04:34;;;;;;;11.47;6.23;;;-4.60;99.90;;;;;;2081531;28;20215;-70
2022/01/16 02:05:35;;;;;;;13.23;6.20;;;-4.60;99.90;;;;;;2081459;28;20181;-68
2022/01/16 02:06:36;;;;;;;12.17;6.43;;;-4.60;99.90;;;;;;2081514;28;20833;-68
2022/01/16 02:07:36;;;;;;;9.13;5.70;;;-4.60;99.90;;;;;;2080625;28;20668;-68
2022/01/16 02:08:37;;;;;;;13.70;6.60;;;-4.60;99.90;;;;;;2080919;28;20264;-70
2022/01/16 02:09:38;;;;;;;12.68;7.07;;;-4.50;99.90;;;;;;2081485;28;20177;-67
2022/01/16 02:10:40;;;;;;;13.37;6.50;;;-4.70;99.90;;;;;;2081449;28;20412;-68
2022/01/16 02:11:42;;;;;;;13.88;7.57;;;-4.80;99.90;;;;;;2089062;28;20168;-67
2022/01/16 02:12:46;;;;;;;15.68;7.55;;;-4.90;99.90;;;;;;2080719;28;20181;-68
2022/01/16 02:14:59;;;;;;;13.77;7.07;;;-4.90;99.90;;;;;;2081458;28;20653;-68
2022/01/16 02:28:10;;;;;;;11.27;6.13;;;-4.90;99.90;;;;;;2080909;28;20196;-68
2022/01/16 02:31:24;;;;;;;9.05;4.60;;;-5.00;99.90;;;;;;2088932;28;20374;-68
2022/01/16 02:34:50;;;;;;;10.90;5.10;;;-5.10;99.90;;;;;;2081509;28;20176;-69
2022/01/16 02:35:56;;;;;;;9.43;4.85;;;-5.10;99.90;;;;;;2080708;28;20184;-70
2022/01/16 02:37:01;;;;;;;8.63;4.95;;;-5.10;99.90;;;;;;2073247;28;20170;-69
2022/01/16 02:38:04;;;;;;;7.00;3.55;;;-5.00;99.90;;;;;;2080978;28;20225;-69
2022/01/16 02:39:12;;;;;;;8.45;4.13;;;-4.90;99.90;;;;;;2088171;28;20176;-70
2022/01/16 02:40:16;;;;;;;10.88;4.97;;;-4.90;99.90;;;;;;2081282;28;20169;-67
2022/01/16 02:41:17;;;;;;;8.20;4.72;;;-4.90;99.90;;;;;;2072532;28;20178;-68
2022/01/16 02:42:25;;;;;;;10.03;5.53;;;-4.90;99.90;;;;;;2072761;28;20182;-68
2022/01/16 02:43:34;;;;;;;10.95;4.55;;;-5.00;99.90;;;;;;2081154;28;20414;-68
2022/01/16 02:44:44;;;;;;;8.95;4.78;;;-5.00;99.90;;;;;;2081264;28;20162;-68
2022/01/16 02:45:58;;;;;;;7.93;4.72;;;-4.90;99.90;;;;;;2081310;28;20161;-69
2022/01/16 02:47:00;;;;;;;12.70;4.90;;;-4.90;99.90;;;;;;2081271;28;20219;-69
2022/01/16 02:48:07;;;;;;;9.65;4.60;;;-5.00;99.90;;;;;;2088509;28;20196;-70
2022/01/16 02:49:26;;;;;;;8.50;4.45;;;-5.00;99.90;;;;;;2080681;28;20161;-70
2022/01/16 02:50:28;;;;;;;6.75;4.05;;;-4.90;99.90;;;;;;2083183;28;20191;-69
2022/01/16 02:51:29;;;;;;;6.97;4.63;;;-4.90;99.90;;;;;;2080655;28;20181;-69
2022/01/16 02:52:30;;;;;;;7.97;4.47;;;-4.90;99.90;;;;;;2080699;28;20766;-69
2022/01/16 02:53:30;;;;;;;7.07;3.87;;;-4.90;99.90;;;;;;2088948;28;20176;-69
2022/01/16 02:54:37;;;;;;;8.63;5.23;;;-5.00;99.90;;;;;;2081239;28;20204;-70
2022/01/16 02:55:41;;;;;;;7.85;4.45;;;-5.00;99.90;;;;;;2092565;28;20172;-69
2022/01/16 02:56:43;;;;;;;7.90;4.53;;;-5.00;99.90;;;;;;2095619;28;20288;-69
2022/01/16 02:57:44;;;;;;;6.65;4.43;;;-5.10;99.90;;;;;;2089146;28;20282;-70
2022/01/16 02:58:46;;;;;;;4.87;3.77;;;-5.10;99.90;;;;;;2089409;28;20180;-70
2022/01/16 02:59:54;;;;;;;7.63;4.78;;;-5.10;99.90;;;;;;2088831;28;20172;-70
2022/01/16 03:00:55;;;;;;;6.78;3.78;;;-5.10;99.90;;;;;;2088815;28;20659;-68
2022/01/16 03:01:56;;;;;;;11.93;4.30;;;-5.10;99.90;;;;;;2088966;28;20227;-68
2022/01/16 03:02:57;;;;;;;7.57;3.50;;;-5.10;99.90;;;;;;2088909;28;20578;-68
2022/01/16 03:03:58;;;;;;;10.63;4.00;;;-5.20;99.90;;;;;;2088801;28;20216;-68
2022/01/16 03:04:58;;;;;;;8.43;4.70;;;-5.20;99.90;;;;;;2088694;28;20187;-68
2022/01/16 03:05:59;;;;;;;7.80;4.93;;;-5.20;99.90;;;;;;2089494;28;20180;-68
2022/01/16 03:07:03;;;;;;;5.90;4.17;;;-5.20;99.90;;;;;;2088593;28;20216;-68
2022/01/16 03:08:05;;;;;;;7.95;4.25;;;-5.20;99.90;;;;;;2080661;28;20207;-68
2022/01/16 03:09:07;;;;;;;9.60;4.82;;;-5.30;99.90;;;;;;2080719;28;20200;-68
2022/01/16 03:11:35;;;;;;;7.45;3.85;;;-5.20;99.90;;;;;;2089438;28;20195;-68
2022/01/16 03:12:36;;;;;;;5.70;3.63;;;-5.20;99.90;;;;;;2088930;28;20161;-69
2022/01/16 03:13:41;;;;;;;7.70;4.13;;;-5.30;99.90;;;;;;2088814;28;20180;-68
2022/01/16 03:14:42;;;;;;;6.30;3.90;;;-5.20;99.90;;;;;;2089393;28;20161;-68
2022/01/16 03:15:44;;;;;;;6.60;3.43;;;-5.20;99.90;;;;;;2089234;28;20185;-68
2022/01/16 03:16:50;;;;;;;6.63;3.67;;;-5.10;99.90;;;;;;2089331;28;20181;-69
2022/01/16 03:21:54;;;;;;;5.43;2.78;;;-5.00;99.90;;;;;;2089393;28;20196;-68
2022/01/16 03:22:55;;;;;;;6.75;4.25;;;-5.20;99.90;;;;;;2088711;28;20188;-69
2022/01/16 03:23:55;;;;;;;6.20;4.13;;;-5.40;99.90;;;;;;2088805;28;20270;-68
2022/01/16 03:24:56;;;;;;;9.00;4.00;;;-5.40;99.90;;;;;;2088708;28;20172;-68
2022/01/16 03:25:57;;;;;;;8.23;4.13;;;-5.50;99.90;;;;;;2088622;28;20176;-69
2022/01/16 03:27:04;;;;;;;7.30;4.33;;;-5.50;99.90;;;;;;2088663;28;20215;-68
2022/01/16 03:28:05;;;;;;;8.50;4.18;;;-5.60;99.90;;;;;;2081082;28;20197;-68
2022/01/16 03:29:05;;;;;;;8.10;4.10;;;-5.70;99.90;;;;;;2080546;28;20731;-68
2022/01/16 03:30:07;;;;;;;8.00;4.57;;;-5.70;99.90;;;;;;2088565;28;20177;-68
2022/01/16 03:31:08;;;;;;;6.32;3.63;;;-5.80;99.90;;;;;;2080335;28;20280;-68
2022/01/16 03:32:13;;;;;;;6.40;4.10;;;-6.00;99.90;;;;;;2080479;28;20192;-69
2022/01/16 03:33:15;;;;;;;6.13;3.42;;;-6.10;99.90;;;;;;2088749;28;20163;-67
2022/01/16 03:34:16;;;;;;;5.82;3.55;;;-6.00;99.90;;;;;;2088687;28;20651;-68
2022/01/16 03:35:18;;;;;;;6.05;3.75;;;-6.00;99.90;;;;;;2088747;28;20226;-68
2022/01/16 03:36:18;;;;;;;8.70;4.80;;;-6.00;99.90;;;;;;2088601;28;20173;-68
2022/01/16 03:37:19;;;;;;;7.90;4.57;;;-6.00;99.90;;;;;;2096764;28;20207;-69
2022/01/16 03:38:20;;;;;;;7.45;3.63;;;-6.10;99.90;;;;;;2089334;28;20172;-68
2022/01/16 03:39:21;;;;;;;10.30;4.03;;;-6.10;99.90;;;;;;2089254;28;20664;-68
2022/01/16 03:40:22;;;;;;;7.43;3.77;;;-6.10;99.90;;;;;;2096937;28;20168;-68
2022/01/16 03:41:27;;;;;;;6.63;3.78;;;-6.00;99.90;;;;;;2088696;28;20176;-69
2022/01/16 03:42:30;;;;;;;7.35;4.20;;;-6.00;99.90;;;;;;2088642;28;20270;-68
2022/01/16 03:43:31;;;;;;;5.00;2.92;;;-5.90;99.90;;;;;;2089316;28;20180;-68
2022/01/16 03:44:31;;;;;;;8.03;3.90;;;-5.80;99.90;;;;;;2088566;28;20194;-68
2022/01/16 03:45:32;;;;;;;7.77;4.27;;;-5.70;99.90;;;;;;2088645;28;20183;-68
2022/01/16 03:46:36;;;;;;;4.83;3.47;;;-5.70;99.90;;;;;;2089219;28;20677;-68
2022/01/16 03:47:37;;;;;;;5.15;3.35;;;-5.70;99.90;;;;;;2088294;28;20218;-69
2022/01/16 03:48:38;;;;;;;7.63;4.20;;;-5.60;99.90;;;;;;2088593;28;20189;-68
2022/01/16 03:49:38;;;;;;;4.10;3.00;;;-5.60;99.90;;;;;;2089330;28;20192;-68
2022/01/16 03:50:39;;;;;;;5.03;3.23;;;-5.50;99.90;;;;;;2088816;28;20698;-68
2022/01/16 03:51:42;;;;;;;5.27;3.30;;;-5.40;99.90;;;;;;2089361;28;20561;-68
2022/01/16 03:52:43;;;;;;;6.00;3.40;;;-5.40;99.90;;;;;;2080280;28;20635;-68
2022/01/16 03:53:44;;;;;;;7.00;3.38;;;-5.40;99.90;;;;;;2080863;28;20185;-68
2022/01/16 03:54:45;;;;;;;6.28;3.60;;;-5.40;99.90;;;;;;2090436;28;20187;-68
2022/01/16 03:55:46;;;;;;;8.00;3.20;;;-5.40;99.90;;;;;;2091086;28;20195;-68
2022/01/16 03:56:48;;;;;;;5.40;3.50;;;-5.50;99.90;;;;;;2090790;28;20180;-68
2022/01/16 03:57:48;;;;;;;5.60;3.50;;;-5.50;99.90;;;;;;2098251;28;20591;-68
2022/01/16 03:58:49;;;;;;;6.63;3.47;;;-5.60;99.90;;;;;;2090294;28;20204;-68
2022/01/16 03:59:50;;;;;;;4.77;3.37;;;-5.60;99.90;;;;;;2090394;28;20251;-68
2022/01/16 04:00:50;;;;;;;6.53;4.13;;;-5.60;99.90;;;;;;2098528;28;20276;-68
2022/01/16 04:01:51;;;;;;;5.53;3.13;;;-5.60;99.90;;;;;;2091133;28;20751;-68
2022/01/16 04:02:53;;;;;;;6.37;3.10;;;-5.60;99.90;;;;;;2090273;28;20190;-69
2022/01/16 04:03:55;;;;;;;5.93;3.42;;;-5.60;99.90;;;;;;2090481;28;20184;-68
2022/01/16 04:04:56;;;;;;;5.13;3.38;;;-5.50;99.90;;;;;;2090283;28;20187;-68
2022/01/16 04:05:56;;;;;;;5.10;3.10;;;-5.60;99.90;;;;;;2090265;28;20247;-68
2022/01/16 04:06:59;;;;;;;7.97;3.73;;;-5.60;99.90;;;;;;2090806;28;20172;-68
2022/01/16 04:08:02;;;;;;;6.65;3.55;;;-5.70;99.90;;;;;;2089923;28;20664;-68
2022/01/16 04:09:03;;;;;;;5.85;3.72;;;-5.80;99.90;;;;;;2090115;28;20181;-68
2022/01/16 04:10:07;;;;;;;7.07;3.67;;;-5.80;99.90;;;;;;2098639;28;20728;-68
2022/01/16 04:11:08;;;;;;;5.20;3.30;;;-5.80;99.90;;;;;;2098026;28;20210;-68
2022/01/16 04:12:10;;;;;;;6.90;3.17;;;-5.80;99.90;;;;;;2082079;28;20181;-69
2022/01/16 04:13:12;;;;;;;7.10;3.17;;;-5.70;99.90;;;;;;2090252;28;20259;-68
2022/01/16 04:14:21;;;;;;;4.90;3.10;;;-5.70;99.90;;;;;;2090792;28;20184;-68
2022/01/16 04:15:31;;;;;;;6.68;2.83;;;-5.70;99.90;;;;;;2090949;28;20156;-68
2022/01/16 04:16:32;;;;;;;5.20;3.25;;;-5.60;99.90;;;;;;2098476;28;20175;-68
2022/01/16 04:17:33;;;;;;;4.80;3.63;;;-5.60;99.90;;;;;;2096988;28;20246;-70
2022/01/16 04:18:34;;;;;;;5.23;3.13;;;-5.60;99.90;;;;;;2090188;28;20702;-69
2022/01/16 04:19:35;;;;;;;4.30;2.60;;;-5.60;99.90;;;;;;2081937;28;20710;-68
2022/01/16 04:20:36;;;;;;;4.15;2.67;;;-5.50;99.90;;;;;;2090058;28;20214;-69
2022/01/16 04:21:36;;;;;;;5.97;2.80;;;-5.50;99.90;;;;;;2090852;28;20180;-68
2022/01/16 04:22:38;;;;;;;5.03;3.33;;;-5.50;99.90;;;;;;2090712;28;20168;-68
2022/01/16 04:23:39;;;;;;;5.93;2.90;;;-5.50;99.90;;;;;;2090856;28;20657;-70
2022/01/16 04:24:41;;;;;;;5.37;2.93;;;-5.60;99.90;;;;;;2090854;28;20180;-68
2022/01/16 04:25:42;;;;;;;4.65;3.35;;;-5.70;99.90;;;;;;2091117;28;20180;-68
2022/01/16 04:26:42;;;;;;;4.80;3.10;;;-5.70;99.90;;;;;;2090804;28;20223;-69
2022/01/16 04:27:43;;;;;;;4.60;2.77;;;-5.70;99.90;;;;;;2090444;28;20235;-68
2022/01/16 04:28:46;;;;;;;4.43;3.23;;;-5.70;99.90;;;;;;2090093;28;20262;-70
2022/01/16 04:29:47;;;;;;;5.00;2.78;;;-5.70;99.90;;;;;;2082144;28;20184;-69
2022/01/16 04:30:48;;;;;;;3.77;2.43;;;-5.60;99.90;;;;;;2090188;28;20184;-68
2022/01/16 04:31:48;;;;;;;5.33;2.97;;;-5.60;99.90;;;;;;2090709;28;20604;-70
2022/01/16 04:32:49;;;;;;;4.47;2.40;;;-5.50;99.90;;;;;;2090662;28;20181;-67
2022/01/16 04:33:51;;;;;;;5.53;3.25;;;-5.50;99.90;;;;;;2090805;28;20314;-70
2022/01/16 04:34:51;;;;;;;4.15;3.15;;;-5.50;99.90;;;;;;2098261;28;20198;-70
2022/01/16 04:35:52;;;;;;;4.97;2.80;;;-5.50;99.90;;;;;;2098382;28;20731;-67
2022/01/16 04:36:53;;;;;;;3.97;2.93;;;-5.50;99.90;;;;;;2090042;28;20183;-70
2022/01/16 04:37:53;;;;;;;7.40;3.30;;;-5.60;99.90;;;;;;2089768;28;20193;-68
2022/01/16 04:38:54;;;;;;;3.97;2.77;;;-5.60;99.90;;;;;;2090650;28;20176;-70
2022/01/16 04:39:59;;;;;;;4.27;2.60;;;-5.60;99.90;;;;;;2090666;28;20180;-68
2022/01/16 04:43:48;;;;;;;4.38;2.78;;;-5.70;99.90;;;;;;2090108;28;20168;-69
2022/01/16 04:44:49;;;;;;;5.78;2.65;;;-5.70;99.90;;;;;;2085570;28;20179;-69
2022/01/16 04:45:50;;;;;;;5.03;2.88;;;-5.70;99.90;;;;;;2090115;28;20187;-69
2022/01/16 04:46:51;;;;;;;4.33;2.83;;;-5.70;99.90;;;;;;2090723;28;20555;-69
2022/01/16 04:47:52;;;;;;;4.03;2.80;;;-5.80;99.90;;;;;;2090455;28;20619;-69
2022/01/16 04:48:55;;;;;;;5.63;2.97;;;-5.70;99.90;;;;;;2089912;28;20183;-69
2022/01/16 04:49:56;;;;;;;5.57;2.92;;;-5.70;99.90;;;;;;2082237;28;20203;-70
2022/01/16 04:50:56;;;;;;;4.67;2.93;;;-5.80;99.90;;;;;;2089884;28;20222;-69
2022/01/16 04:51:57;;;;;;;3.60;2.47;;;-5.90;99.90;;;;;;2089928;28;20189;-69
2022/01/16 04:52:58;;;;;;;4.40;2.50;;;-5.90;99.90;;;;;;2090014;28;20177;-70
2022/01/16 04:53:59;;;;;;;4.50;2.57;;;-5.80;99.90;;;;;;2081659;28;20632;-69
2022/01/16 04:55:00;;;;;;;3.20;2.45;;;-5.90;99.90;;;;;;2073643;28;20182;-69
2022/01/16 04:56:00;;;;;;;5.13;2.97;;;-5.90;99.90;;;;;;2081697;28;20184;-69
2022/01/16 04:57:01;;;;;;;3.57;2.50;;;-6.00;99.90;;;;;;2081455;28;20180;-69
2022/01/16 04:58:02;;;;;;;5.20;2.70;;;-6.00;99.90;;;;;;2072995;28;20592;-70
2022/01/16 04:59:03;;;;;;;5.43;2.83;;;-6.00;99.90;;;;;;2073363;28;20173;-69
2022/01/16 05:00:10;;;;;;;4.38;3.22;;;-5.90;99.90;;;;;;2089846;28;20322;-70
2022/01/16 05:01:11;;;;;;;5.80;3.00;;;-5.90;99.90;;;;;;2090320;28;20626;-70
2022/01/16 05:02:12;;;;;;;5.75;3.22;;;-6.00;99.90;;;;;;2090128;28;20180;-69
2022/01/16 05:03:12;;;;;;;6.20;3.20;;;-6.00;99.90;;;;;;2089540;28;20255;-69
2022/01/16 05:04:13;;;;;;;5.53;3.10;;;-6.10;99.90;;;;;;2089329;28;20527;-69
2022/01/16 05:05:14;;;;;;;2.33;1.80;;;-6.10;99.90;;;;;;2089527;28;20255;-69
2022/01/16 05:06:14;;;;;;;3.67;2.77;;;-6.00;99.90;;;;;;2089314;28;20644;-70
2022/01/16 05:07:15;;;;;;;3.93;2.80;;;-5.90;99.90;;;;;;2090102;28;20180;-70
2022/01/16 05:08:16;;;;;;;4.87;2.40;;;-5.90;99.90;;;;;;2089718;28;20251;-70
2022/01/16 05:09:16;;;;;;;4.13;2.57;;;-5.90;99.90;;;;;;2089925;28;20232;-70
2022/01/16 05:10:17;;;;;;;5.00;2.53;;;-5.80;99.90;;;;;;2097965;28;20180;-69
2022/01/16 05:11:24;;;;;;;4.13;2.53;;;-5.90;99.90;;;;;;2090368;28;20203;-69
2022/01/16 05:12:34;;;;;;;6.63;3.30;;;-5.90;99.90;;;;;;2090262;28;20186;-70
2022/01/16 05:17:16;;;;;;;3.00;2.00;;;-5.80;99.90;;;;;;2097659;28;20202;-69
2022/01/16 05:18:16;;;;;;;6.07;2.90;;;-5.70;99.90;;;;;;2089615;28;20188;-69
2022/01/16 05:19:19;;;;;;;4.93;2.80;;;-5.70;99.90;;;;;;2089828;28;20176;-69
2022/01/16 05:20:20;;;;;;;5.38;2.60;;;-5.80;99.90;;;;;;2090280;28;20255;-69
2022/01/16 05:21:22;;;;;;;5.55;2.50;;;-5.90;99.90;;;;;;2089651;28;20184;-69
2022/01/16 05:22:22;;;;;;;6.63;2.78;;;-5.90;99.90;;;;;;2081358;28;20181;-69
2022/01/16 05:23:23;;;;;;;4.87;2.40;;;-5.90;99.90;;;;;;2081176;28;20368;-69
2022/01/16 05:24:28;;;;;;;4.57;2.50;;;-5.90;99.90;;;;;;2089347;28;20172;-69
2022/01/16 05:25:28;;;;;;;4.07;2.78;;;-5.90;99.90;;;;;;2089917;28;20781;-69
2022/01/16 05:26:29;;;;;;;4.63;2.70;;;-6.00;99.90;;;;;;2089974;28;20255;-68
2022/01/16 05:27:30;;;;;;;7.70;3.50;;;-6.10;99.90;;;;;;2089626;28;20199;-69
2022/01/16 05:28:31;;;;;;;5.07;3.60;;;-6.10;99.90;;;;;;2089853;28;20228;-70
2022/01/16 05:29:32;;;;;;;4.47;3.10;;;-6.20;99.90;;;;;;2081048;28;20181;-70
2022/01/16 05:30:33;;;;;;;5.80;3.40;;;-6.20;99.90;;;;;;2081079;28;20221;-69
2022/01/16 05:31:33;;;;;;;7.23;3.43;;;-6.20;99.90;;;;;;2089327;28;20184;-69
2022/01/16 05:32:34;;;;;;;4.17;2.63;;;-6.20;99.90;;;;;;2089306;28;20183;-69
2022/01/16 05:33:35;;;;;;;6.40;3.30;;;-6.10;99.90;;;;;;2081099;28;20184;-69
2022/01/16 05:34:36;;;;;;;6.50;4.40;;;-6.20;99.90;;;;;;2089204;28;20191;-69
2022/01/16 05:35:36;;;;;;;5.80;3.90;;;-6.20;99.90;;;;;;2090020;28;20173;-69
2022/01/16 05:36:37;;;;;;;7.30;4.03;;;-6.20;99.90;;;;;;2089477;28;20264;-69
2022/01/16 05:37:38;;;;;;;7.93;3.53;;;-6.20;99.90;;;;;;2080789;28;20212;-69
2022/01/16 05:38:39;;;;;;;6.97;3.23;;;-6.30;99.90;;;;;;2089454;28;20600;-69
2022/01/16 05:39:40;;;;;;;6.57;3.53;;;-6.30;99.90;;;;;;2089199;28;20672;-69
2022/01/16 05:40:42;;;;;;;6.75;3.40;;;-6.30;99.90;;;;;;2081111;28;20275;-69
2022/01/16 05:41:43;;;;;;;5.05;3.50;;;-6.40;99.90;;;;;;2089207;28;20180;-70
2022/01/16 05:42:44;;;;;;;4.57;3.03;;;-6.30;99.90;;;;;;2089947;28;20201;-70
2022/01/16 05:43:48;;;;;;;4.73;3.23;;;-6.30;99.90;;;;;;2089220;28;20203;-69
2022/01/16 05:44:49;;;;;;;6.90;3.30;;;-6.20;99.90;;;;;;2073311;28;20257;-69
2022/01/16 05:45:50;;;;;;;6.60;3.53;;;-6.30;99.90;;;;;;2072838;28;20182;-69
2022/01/16 05:46:50;;;;;;;5.93;3.30;;;-6.30;99.90;;;;;;2080942;28;20591;-69
2022/01/16 05:47:51;;;;;;;4.23;3.27;;;-6.30;99.90;;;;;;2088776;28;20675;-69
2022/01/16 05:48:52;;;;;;;6.00;3.10;;;-6.20;99.90;;;;;;2097427;28;20183;-69
2022/01/16 05:49:52;;;;;;;3.93;2.93;;;-6.20;99.90;;;;;;2089662;28;20187;-69
2022/01/16 05:50:54;;;;;;;4.13;2.70;;;-6.20;99.90;;;;;;2089825;28;20176;-69
2022/01/16 05:51:55;;;;;;;4.93;3.78;;;-6.20;99.90;;;;;;2089118;28;20172;-70
2022/01/16 05:52:55;;;;;;;7.20;3.97;;;-6.20;99.90;;;;;;2089323;28;20570;-70
2022/01/16 05:53:57;;;;;;;6.53;3.90;;;-6.20;99.90;;;;;;2089117;28;20422;-69
2022/01/16 05:54:57;;;;;;;7.32;3.95;;;-6.30;99.90;;;;;;2089172;28;20182;-69
2022/01/16 05:55:58;;;;;;;6.40;3.53;;;-6.20;99.90;;;;;;2089700;28;20187;-69
2022/01/16 05:56:59;;;;;;;7.30;4.10;;;-6.20;99.90;;;;;;2089578;28;20192;-69
2022/01/16 05:57:59;;;;;;;3.47;2.57;;;-6.20;99.90;;;;;;2089466;28;20202;-69
2022/01/16 05:59:00;;;;;;;4.73;2.97;;;-6.20;99.90;;;;;;2089188;28;20277;-69
2022/01/16 06:00:01;;;;;;;4.63;2.80;;;-6.20;99.90;;;;;;2089113;28;20244;-68
2022/01/16 06:01:02;;;;;;;5.73;3.30;;;-6.20;99.90;;;;;;2097357;28;20686;-69
2022/01/16 06:02:03;;;;;;;5.17;3.00;;;-6.10;99.90;;;;;;2089729;28;20800;-69